Time;durP1;ratioP1;P1;durP2;ratioP2;P2;SDS_P1;SDS_P2;PMS_P1;PMS_P2;Temp;Humidity;BMP_temperature;BMP_pressure;BME280_temperature;BME280_humidity;BME280_pressure;Samples;Min_cycle;Max_cycle;Signal;HPM_P1;HPM_P2
2022/11/28 00:00:45;;;;;;;47.20;28.80;;;4.50;99.90;;;;;;4972265;28;20232;-76
2022/11/28 00:03:12;;;;;;;50.17;29.60;;;4.50;99.90;;;;;;4973599;28;20219;-76
2022/11/28 00:05:40;;;;;;;50.03;28.73;;;4.50;99.90;;;;;;4970556;28;20208;-76
2022/11/28 00:08:07;;;;;;;47.20;29.37;;;4.50;99.90;;;;;;4970632;28;20217;-75
2022/11/28 00:10:34;;;;;;;49.53;27.47;;;4.50;99.90;;;;;;4971858;28;20212;-75
2022/11/28 00:13:00;;;;;;;46.23;26.37;;;4.50;99.90;;;;;;4965285;28;20222;-75
2022/11/28 00:15:27;;;;;;;54.97;30.23;;;4.50;99.90;;;;;;4972323;28;20212;-77
2022/11/28 00:17:54;;;;;;;54.73;29.63;;;4.50;99.90;;;;;;4970744;28;20216;-75
2022/11/28 00:20:21;;;;;;;49.23;29.07;;;4.50;99.90;;;;;;4972849;28;20201;-76
2022/11/28 00:22:49;;;;;;;56.30;31.20;;;4.50;99.90;;;;;;4971439;28;20213;-75
2022/11/28 00:25:16;;;;;;;52.20;30.73;;;4.50;99.90;;;;;;4972872;28;20240;-72
2022/11/28 00:27:42;;;;;;;49.83;30.13;;;4.50;99.90;;;;;;4972509;28;20231;-75
2022/11/28 00:30:10;;;;;;;55.83;30.53;;;4.50;99.90;;;;;;4967779;28;20225;-76
2022/11/28 00:32:37;;;;;;;49.43;29.80;;;4.50;99.90;;;;;;4972251;28;20209;-76
2022/11/28 00:35:05;;;;;;;53.90;31.07;;;4.50;99.90;;;;;;4973016;28;20201;-77
2022/11/28 00:37:31;;;;;;;54.23;31.33;;;4.60;99.90;;;;;;4970245;28;20244;-78
2022/11/28 00:39:59;;;;;;;55.27;32.57;;;4.60;99.90;;;;;;4971635;28;20200;-76
2022/11/28 00:42:26;;;;;;;51.77;30.87;;;4.60;99.90;;;;;;4970461;28;20463;-76
2022/11/28 00:44:53;;;;;;;49.40;28.80;;;4.60;99.90;;;;;;4972326;28;20205;-74
2022/11/28 00:47:20;;;;;;;49.57;29.30;;;4.60;99.90;;;;;;4967627;28;20734;-73
2022/11/28 00:49:47;;;;;;;56.00;31.47;;;4.60;99.90;;;;;;4971008;28;20411;-74
2022/11/28 00:52:14;;;;;;;48.80;30.53;;;4.60;99.90;;;;;;4969920;28;20204;-75
2022/11/28 00:54:43;;;;;;;53.57;30.87;;;4.50;99.90;;;;;;4969764;28;20240;-72
2022/11/28 00:57:11;;;;;;;52.40;32.23;;;4.50;99.90;;;;;;4966763;28;20247;-73
2022/11/28 00:59:38;;;;;;;55.63;33.00;;;4.60;99.90;;;;;;4970978;28;20236;-76
2022/11/28 01:02:05;;;;;;;56.87;32.17;;;4.60;99.90;;;;;;4966752;28;20264;-75
2022/11/28 01:04:32;;;;;;;53.00;30.80;;;4.50;99.90;;;;;;4972021;28;20208;-75
2022/11/28 01:06:58;;;;;;;55.73;32.47;;;4.50;99.90;;;;;;4969798;28;20205;-74
2022/11/28 01:09:25;;;;;;;55.20;32.30;;;4.50;99.90;;;;;;4971765;28;20232;-75
2022/11/28 01:11:53;;;;;;;59.83;33.37;;;4.50;99.90;;;;;;4972950;28;20213;-77
2022/11/28 01:14:24;;;;;;;60.17;32.60;;;4.50;99.90;;;;;;4970074;28;20219;-77
2022/11/28 01:16:51;;;;;;;52.97;31.67;;;4.60;99.90;;;;;;4970687;28;20208;-75
2022/11/28 01:19:18;;;;;;;55.30;32.57;;;4.50;99.90;;;;;;4966453;28;20205;-75
2022/11/28 01:21:45;;;;;;;55.33;32.63;;;4.50;99.90;;;;;;4972209;28;20209;-77
2022/11/28 01:24:13;;;;;;;54.10;31.87;;;4.50;99.90;;;;;;4971721;28;20218;-76
2022/11/28 01:26:40;;;;;;;52.27;30.47;;;4.50;99.90;;;;;;4969150;28;20240;-74
2022/11/28 01:29:09;;;;;;;53.93;32.03;;;4.50;99.90;;;;;;4971284;28;20331;-74
2022/11/28 01:31:37;;;;;;;52.13;31.00;;;4.50;99.90;;;;;;4972074;28;20204;-75
2022/11/28 01:34:04;;;;;;;54.57;31.67;;;4.60;99.90;;;;;;4968485;28;20223;-73
2022/11/28 01:36:31;;;;;;;55.40;33.20;;;4.50;99.90;;;;;;4967198;28;20246;-74
2022/11/28 01:38:58;;;;;;;53.00;30.17;;;4.60;99.90;;;;;;4971433;28;20205;-74
2022/11/28 01:41:27;;;;;;;60.90;33.60;;;4.60;99.90;;;;;;4971833;28;20208;-76
2022/11/28 01:43:59;;;;;;;57.43;33.60;;;4.50;99.90;;;;;;4969970;28;20240;-73
2022/11/28 01:46:28;;;;;;;60.03;34.60;;;4.50;99.90;;;;;;4968378;28;20209;-75
2022/11/28 01:48:59;;;;;;;58.70;35.57;;;4.50;99.90;;;;;;4970858;28;20219;-74
2022/11/28 01:51:26;;;;;;;64.67;35.33;;;4.50;99.90;;;;;;4968963;28;20205;-76
2022/11/28 01:53:54;;;;;;;63.57;35.13;;;4.40;99.90;;;;;;4972728;28;20595;-76
2022/11/28 01:56:24;;;;;;;68.07;37.93;;;4.50;99.90;;;;;;4974308;28;20205;-76
2022/11/28 01:58:57;;;;;;;72.93;37.30;;;4.50;99.90;;;;;;4976139;28;20513;-77
2022/11/28 02:01:25;;;;;;;70.33;37.07;;;4.50;99.90;;;;;;4976917;28;20211;-76
2022/11/28 02:03:53;;;;;;;71.53;39.60;;;4.40;99.90;;;;;;4978944;28;20209;-73
2022/11/28 02:06:24;;;;;;;69.20;37.30;;;4.40;99.90;;;;;;4976764;28;20216;-73
2022/11/28 02:08:51;;;;;;;70.70;37.83;;;4.50;99.90;;;;;;4976394;28;20211;-75
2022/11/28 02:11:43;;;;;;;65.40;35.07;;;4.50;99.90;;;;;;4978475;28;20263;-75
2022/11/28 02:14:20;;;;;;;63.13;37.23;;;4.40;99.90;;;;;;4977643;28;20212;-76
2022/11/28 02:17:03;;;;;;;63.07;35.80;;;4.50;99.90;;;;;;4976601;28;20214;-75
2022/11/28 02:20:11;;;;;;;64.67;37.60;;;4.50;99.90;;;;;;4977142;28;20209;-72
2022/11/28 02:22:47;;;;;;;66.97;35.57;;;4.50;99.90;;;;;;4977340;28;20584;-76
2022/11/28 02:25:41;;;;;;;64.77;36.90;;;4.50;99.90;;;;;;4972530;28;20332;-77
2022/11/28 02:28:43;;;;;;;63.27;35.20;;;4.50;99.90;;;;;;4977663;28;20221;-76
2022/11/28 02:31:25;;;;;;;66.90;35.87;;;4.40;99.90;;;;;;4976674;28;20658;-75
2022/11/28 02:33:56;;;;;;;63.53;34.57;;;4.40;99.90;;;;;;4983749;28;20215;-76
2022/11/28 02:36:31;;;;;;;57.13;33.80;;;4.40;99.90;;;;;;4974922;28;20244;-76
2022/11/28 02:39:10;;;;;;;66.97;35.17;;;4.40;99.90;;;;;;4975246;28;20219;-78
2022/11/28 02:41:43;;;;;;;69.23;35.57;;;4.40;99.90;;;;;;4973154;28;20200;-76
2022/11/28 02:44:13;;;;;;;59.30;33.90;;;4.40;99.90;;;;;;4976556;28;20589;-75
2022/11/28 02:46:48;;;;;;;65.60;36.87;;;4.40;99.90;;;;;;4974168;28;20624;-79
2022/11/28 02:49:22;;;;;;;67.03;35.63;;;4.40;99.90;;;;;;4974406;28;20224;-77
2022/11/28 02:51:53;;;;;;;66.23;36.60;;;4.40;99.90;;;;;;4975500;28;20204;-76
2022/11/28 02:54:21;;;;;;;70.60;38.47;;;4.40;99.90;;;;;;4975294;28;20518;-76
2022/11/28 02:56:49;;;;;;;65.00;37.47;;;4.40;99.90;;;;;;4974448;28;20215;-77
2022/11/28 02:59:31;;;;;;;69.17;37.90;;;4.40;99.90;;;;;;4971042;28;20227;-77
2022/11/28 03:01:59;;;;;;;59.80;34.17;;;4.40;99.90;;;;;;4970855;28;20219;-78
2022/11/28 03:04:35;;;;;;;64.23;34.93;;;4.30;99.90;;;;;;4974725;28;20212;-74
2022/11/28 03:07:11;;;;;;;57.90;34.27;;;4.30;99.90;;;;;;4970465;28;20719;-76
2022/11/28 03:09:50;;;;;;;60.97;33.97;;;4.30;99.90;;;;;;4974339;28;20204;-75
2022/11/28 03:12:28;;;;;;;58.60;34.80;;;4.20;99.90;;;;;;4974302;28;20215;-78
2022/11/28 03:14:58;;;;;;;64.00;34.67;;;4.20;99.90;;;;;;4971061;28;20588;-78
2022/11/28 03:17:32;;;;;;;64.77;35.43;;;4.10;99.90;;;;;;4974058;28;20291;-75
2022/11/28 03:20:14;;;;;;;65.33;35.63;;;4.00;99.90;;;;;;4975474;28;20212;-76
2022/11/28 03:22:49;;;;;;;59.63;33.37;;;4.00;99.90;;;;;;4974187;28;20205;-77
2022/11/28 03:25:25;;;;;;;62.30;33.43;;;3.90;99.90;;;;;;4972876;28;20212;-75
2022/11/28 03:27:56;;;;;;;68.77;36.23;;;3.90;99.90;;;;;;4968953;28;20227;-76
2022/11/28 03:30:29;;;;;;;62.90;34.47;;;3.80;99.90;;;;;;4975481;28;20703;-78
2022/11/28 03:32:57;;;;;;;67.53;36.80;;;3.80;99.90;;;;;;4971778;28;20572;-76
2022/11/28 03:35:30;;;;;;;65.10;34.07;;;3.80;99.90;;;;;;4970781;28;20213;-77
2022/11/28 03:38:01;;;;;;;63.40;34.27;;;3.80;99.90;;;;;;4973908;28;20240;-77
2022/11/28 03:40:32;;;;;;;55.03;29.83;;;3.80;99.90;;;;;;4974512;28;20213;-75
2022/11/28 03:43:02;;;;;;;57.53;29.70;;;3.80;99.90;;;;;;4975763;28;20224;-76
2022/11/28 03:45:34;;;;;;;51.77;29.67;;;3.90;99.90;;;;;;4977246;28;20197;-75
2022/11/28 03:48:06;;;;;;;52.13;29.33;;;3.90;99.90;;;;;;4978403;28;20219;-75
2022/11/28 03:50:40;;;;;;;61.07;31.90;;;3.90;99.90;;;;;;4970661;28;20232;-76
2022/11/28 03:53:11;;;;;;;58.97;33.27;;;4.00;99.90;;;;;;4974223;28;20275;-77
2022/11/28 03:55:42;;;;;;;53.90;31.37;;;4.00;99.90;;;;;;4973256;28;20216;-73
2022/11/28 03:58:13;;;;;;;61.53;32.97;;;4.00;99.90;;;;;;4974438;28;20197;-73
2022/11/28 04:00:50;;;;;;;53.33;29.27;;;4.00;99.90;;;;;;4964607;28;20235;-77
2022/11/28 04:03:23;;;;;;;52.20;27.80;;;4.10;99.90;;;;;;4973450;28;20291;-75
2022/11/28 04:05:57;;;;;;;51.70;29.37;;;4.10;99.90;;;;;;4971309;28;20201;-74
2022/11/28 04:08:27;;;;;;;51.43;27.47;;;4.10;99.90;;;;;;4963255;28;20201;-78
2022/11/28 04:11:00;;;;;;;43.10;25.20;;;4.10;99.90;;;;;;4972947;28;20235;-75
2022/11/28 04:13:31;;;;;;;44.50;25.83;;;4.10;99.90;;;;;;4974326;28;20291;-76
2022/11/28 04:16:04;;;;;;;44.67;25.30;;;4.10;99.90;;;;;;4972833;28;20215;-79
2022/11/28 04:18:41;;;;;;;42.50;25.07;;;4.20;99.90;;;;;;4973073;28;20228;-73
2022/11/28 04:21:14;;;;;;;45.37;25.83;;;4.20;99.90;;;;;;4974806;28;20204;-76
2022/11/28 04:23:44;;;;;;;45.23;26.33;;;4.20;99.90;;;;;;4972153;28;20208;-71
2022/11/28 04:26:16;;;;;;;45.23;25.70;;;4.20;99.90;;;;;;4965817;28;20553;-77
2022/11/28 04:28:46;;;;;;;44.00;26.33;;;4.20;99.90;;;;;;4971977;28;20216;-77
2022/11/28 04:31:13;;;;;;;44.57;25.43;;;4.20;99.90;;;;;;4973825;28;20236;-77
2022/11/28 04:33:43;;;;;;;51.40;26.10;;;4.20;99.90;;;;;;4973715;28;20204;-77
2022/11/28 04:36:14;;;;;;;47.73;26.43;;;4.20;99.90;;;;;;4972403;28;20244;-77
2022/11/28 04:38:43;;;;;;;49.07;29.03;;;4.20;99.90;;;;;;4974860;28;20204;-76
2022/11/28 04:41:16;;;;;;;50.73;27.67;;;4.20;99.90;;;;;;4972096;28;20212;-76
2022/11/28 04:43:49;;;;;;;49.33;27.40;;;4.20;99.90;;;;;;4970010;28;20239;-77
2022/11/28 04:46:20;;;;;;;50.87;27.63;;;4.20;99.90;;;;;;4974611;28;20213;-74
2022/11/28 04:48:47;;;;;;;48.53;27.30;;;4.20;99.90;;;;;;4974584;28;20208;-76
2022/11/28 04:51:20;;;;;;;43.30;27.37;;;4.10;99.90;;;;;;4971872;28;20233;-76
2022/11/28 04:53:52;;;;;;;49.63;27.30;;;4.10;99.90;;;;;;4973367;28;20196;-74
2022/11/28 04:56:22;;;;;;;44.93;26.50;;;4.10;99.90;;;;;;4971835;28;20251;-77
2022/11/28 04:58:51;;;;;;;49.07;27.50;;;4.00;99.90;;;;;;4974762;28;20209;-75
2022/11/28 05:01:24;;;;;;;48.07;28.43;;;4.00;99.90;;;;;;4969069;28;20231;-77
2022/11/28 05:03:51;;;;;;;46.67;26.67;;;4.00;99.90;;;;;;4970108;28;20695;-75
2022/11/28 05:06:28;;;;;;;51.27;28.17;;;4.00;99.90;;;;;;4972017;28;20204;-75
2022/11/28 05:08:55;;;;;;;48.13;25.90;;;3.90;99.90;;;;;;4973729;28;20207;-76
2022/11/28 05:11:22;;;;;;;47.97;27.17;;;3.90;99.90;;;;;;4972264;28;20229;-77
2022/11/28 05:13:49;;;;;;;45.37;26.67;;;3.80;99.90;;;;;;4970546;28;20213;-78
2022/11/28 05:16:16;;;;;;;45.53;25.57;;;3.80;99.90;;;;;;4970212;28;20663;-77
2022/11/28 05:18:44;;;;;;;47.80;26.27;;;3.80;99.90;;;;;;4968733;28;20203;-72
2022/11/28 05:21:11;;;;;;;47.23;26.77;;;3.80;99.90;;;;;;4972483;28;20213;-76
2022/11/28 05:23:41;;;;;;;46.63;26.90;;;3.80;99.90;;;;;;4975030;28;20213;-75
2022/11/28 05:26:10;;;;;;;45.27;24.40;;;3.70;99.90;;;;;;4964422;28;20213;-75
2022/11/28 05:28:36;;;;;;;43.40;24.67;;;3.80;99.90;;;;;;4971941;28;20303;-76
2022/11/28 05:31:04;;;;;;;43.03;24.50;;;3.80;99.90;;;;;;4976132;28;20677;-76
2022/11/28 05:33:32;;;;;;;42.57;24.90;;;3.80;99.90;;;;;;4970363;28;20216;-76
2022/11/28 05:36:03;;;;;;;39.60;23.20;;;3.80;99.90;;;;;;4975461;28;20216;-77
2022/11/28 05:38:31;;;;;;;40.53;24.17;;;3.80;99.90;;;;;;4979108;28;20284;-75
2022/11/28 05:40:59;;;;;;;42.13;23.83;;;3.80;99.90;;;;;;4975517;28;20216;-77
2022/11/28 05:43:26;;;;;;;41.10;23.90;;;3.70;99.90;;;;;;4977897;28;20209;-77
2022/11/28 05:45:53;;;;;;;44.17;23.37;;;3.80;99.90;;;;;;4977869;28;20307;-74
2022/11/28 05:48:20;;;;;;;41.20;24.03;;;3.80;99.90;;;;;;4977828;28;20222;-77
2022/11/28 05:50:49;;;;;;;39.30;24.33;;;3.70;99.90;;;;;;4975457;28;20238;-76
2022/11/28 05:53:17;;;;;;;41.87;24.20;;;3.80;99.90;;;;;;4978816;28;20205;-76
2022/11/28 05:55:44;;;;;;;44.63;25.20;;;3.70;99.90;;;;;;4969190;28;20555;-76
2022/11/28 05:58:13;;;;;;;50.33;25.03;;;3.70;99.90;;;;;;4976141;28;20253;-76
2022/11/28 06:00:40;;;;;;;46.27;25.63;;;3.70;99.90;;;;;;4977844;28;20231;-75
2022/11/28 06:03:08;;;;;;;47.07;26.10;;;3.70;99.90;;;;;;4966942;28;20212;-75
2022/11/28 06:05:39;;;;;;;43.53;25.30;;;3.70;99.90;;;;;;4971826;28;20230;-76
2022/11/28 06:08:06;;;;;;;49.57;25.40;;;3.70;99.90;;;;;;4973670;28;20205;-76
2022/11/28 06:10:33;;;;;;;42.97;24.80;;;3.70;99.90;;;;;;4976800;28;20217;-76
2022/11/28 06:13:01;;;;;;;47.27;26.30;;;3.70;99.90;;;;;;4978952;28;20574;-77
2022/11/28 06:15:30;;;;;;;46.97;27.20;;;3.70;99.90;;;;;;4975558;28;20209;-79
2022/11/28 06:17:57;;;;;;;47.90;26.53;;;3.80;99.90;;;;;;4977896;28;20247;-76
2022/11/28 06:20:24;;;;;;;48.70;28.10;;;3.60;99.90;;;;;;4979634;28;20208;-75
2022/11/28 06:22:51;;;;;;;48.87;27.70;;;3.60;99.90;;;;;;4972547;28;20213;-75
2022/11/28 06:25:18;;;;;;;57.53;30.13;;;3.60;99.90;;;;;;4968020;28;20656;-69
2022/11/28 06:27:45;;;;;;;50.90;29.53;;;3.50;99.90;;;;;;4969568;28;20232;-71
2022/11/28 06:30:12;;;;;;;50.73;29.00;;;3.40;99.90;;;;;;4986870;28;20219;-73
2022/11/28 06:32:40;;;;;;;51.57;27.53;;;3.40;99.90;;;;;;4988774;28;20213;-73
2022/11/28 06:35:08;;;;;;;52.10;28.20;;;3.40;99.90;;;;;;4982755;28;20212;-71
2022/11/28 06:37:35;;;;;;;54.77;28.93;;;3.30;99.90;;;;;;4975941;28;20236;-68
2022/11/28 06:40:01;;;;;;;51.47;28.60;;;3.30;99.90;;;;;;4974520;28;20217;-71
2022/11/28 06:42:28;;;;;;;48.73;26.53;;;3.20;99.90;;;;;;4979874;28;20212;-74
2022/11/28 06:44:55;;;;;;;50.53;27.87;;;3.20;99.90;;;;;;4974634;28;20204;-71
2022/11/28 06:47:22;;;;;;;52.60;30.37;;;3.20;99.90;;;;;;4970920;28;20209;-70
2022/11/28 06:49:50;;;;;;;54.03;28.70;;;3.30;99.90;;;;;;4973317;28;20302;-69
2022/11/28 06:52:17;;;;;;;53.47;29.47;;;3.30;99.90;;;;;;4966242;28;20240;-69
2022/11/28 06:54:44;;;;;;;51.63;28.73;;;3.30;99.90;;;;;;4971032;28;20209;-68
2022/11/28 06:57:11;;;;;;;52.30;28.17;;;3.30;99.90;;;;;;4967945;28;20225;-68
2022/11/28 06:59:38;;;;;;;53.97;28.73;;;3.30;99.90;;;;;;4973829;28;20291;-65
2022/11/28 07:02:05;;;;;;;46.53;26.70;;;3.30;99.90;;;;;;4979670;28;20232;-70
2022/11/28 07:04:32;;;;;;;51.17;28.07;;;3.30;99.90;;;;;;4972234;28;20213;-70
2022/11/28 07:07:00;;;;;;;53.50;26.83;;;3.30;99.90;;;;;;4974606;28;20224;-68
2022/11/28 07:09:27;;;;;;;47.37;27.57;;;3.30;99.90;;;;;;4977276;28;20311;-68
2022/11/28 07:11:54;;;;;;;48.83;27.47;;;3.20;99.90;;;;;;4973875;28;20224;-66
2022/11/28 07:14:21;;;;;;;47.33;26.70;;;3.10;99.90;;;;;;4972933;28;20684;-70
2022/11/28 07:16:48;;;;;;;49.27;27.13;;;3.00;99.90;;;;;;4967163;28;20530;-69
2022/11/28 07:19:15;;;;;;;47.00;26.90;;;3.00;99.90;;;;;;4975052;28;20209;-72
2022/11/28 07:21:42;;;;;;;47.07;24.67;;;2.90;99.90;;;;;;4976886;28;20200;-74
2022/11/28 07:24:10;;;;;;;49.97;26.10;;;2.90;99.90;;;;;;4982229;28;20197;-68
2022/11/28 07:26:37;;;;;;;49.23;25.63;;;2.90;99.90;;;;;;4987577;28;20189;-73
2022/11/28 07:29:06;;;;;;;44.90;24.47;;;2.90;99.90;;;;;;4979011;28;20221;-67
2022/11/28 07:31:33;;;;;;;46.23;26.03;;;2.90;99.90;;;;;;4969822;28;20259;-69
2022/11/28 07:34:02;;;;;;;47.17;24.80;;;2.90;99.90;;;;;;4992168;28;20193;-68
2022/11/28 07:36:29;;;;;;;54.20;26.27;;;2.90;99.90;;;;;;4992435;28;20252;-66
2022/11/28 07:38:57;;;;;;;46.93;26.23;;;3.00;99.90;;;;;;4988603;28;20211;-69
2022/11/28 07:41:26;;;;;;;46.97;26.13;;;3.00;99.90;;;;;;4972941;28;20200;-71
2022/11/28 07:43:55;;;;;;;49.90;26.47;;;3.00;99.90;;;;;;4974099;28;20208;-70
2022/11/28 07:46:21;;;;;;;60.75;33.00;;;3.00;99.90;;;;;;4973683;28;20446;-69
2022/11/28 07:48:49;;;;;;;50.57;28.43;;;3.10;99.90;;;;;;4975613;28;20204;-66
2022/11/28 07:51:19;;;;;;;49.47;27.13;;;3.10;99.90;;;;;;4971957;28;20224;-67
2022/11/28 07:53:46;;;;;;;44.70;24.63;;;3.20;99.90;;;;;;4966984;28;20216;-67
2022/11/28 07:56:19;;;;;;;51.80;28.83;;;3.20;99.90;;;;;;4967633;28;20462;-68
2022/11/28 07:58:48;;;;;;;50.90;33.63;;;3.20;99.90;;;;;;4968024;28;20466;-64
2022/11/28 08:01:17;;;;;;;49.67;28.10;;;3.20;99.90;;;;;;4971677;28;20227;-67
2022/11/28 08:03:44;;;;;;;43.83;25.47;;;3.30;99.90;;;;;;4968383;28;20213;-73
2022/11/28 08:06:15;;;;;;;46.60;25.03;;;3.30;99.90;;;;;;4974816;28;20236;-68
2022/11/28 08:08:42;;;;;;;45.90;24.17;;;3.30;99.90;;;;;;4978674;28;20209;-73
2022/11/28 08:11:10;;;;;;;45.23;25.33;;;3.40;99.90;;;;;;4979691;28;20216;-70
2022/11/28 08:13:37;;;;;;;48.87;25.83;;;3.40;99.90;;;;;;4985994;28;20289;-72
2022/11/28 08:16:08;;;;;;;48.07;25.30;;;3.30;99.90;;;;;;4984361;28;20211;-71
2022/11/28 08:18:35;;;;;;;41.83;24.37;;;3.30;99.90;;;;;;4990018;28;20272;-70
2022/11/28 08:21:04;;;;;;;46.37;25.10;;;3.30;99.90;;;;;;4979171;28;20660;-71
2022/11/28 08:23:32;;;;;;;43.97;24.50;;;3.30;99.90;;;;;;4983614;28;20233;-71
2022/11/28 08:26:00;;;;;;;45.63;25.40;;;3.40;99.90;;;;;;4973653;28;20657;-76
2022/11/28 08:28:27;;;;;;;48.47;26.17;;;3.40;99.90;;;;;;4971734;28;20204;-74
2022/11/28 08:30:55;;;;;;;44.77;23.57;;;3.50;99.90;;;;;;4967103;28;20233;-73
2022/11/28 08:33:24;;;;;;;41.10;23.17;;;3.50;99.90;;;;;;4975009;28;20243;-71
2022/11/28 08:35:51;;;;;;;41.20;23.80;;;3.50;99.90;;;;;;4968818;28;20209;-66
2022/11/28 08:38:18;;;;;;;41.80;22.20;;;3.50;99.90;;;;;;4970573;28;20288;-74
2022/11/28 08:40:45;;;;;;;42.50;23.37;;;3.60;99.90;;;;;;4972251;28;20587;-72
2022/11/28 08:43:12;;;;;;;43.07;23.63;;;3.50;99.90;;;;;;4968227;28;20208;-72
2022/11/28 08:45:38;;;;;;;37.53;21.87;;;3.60;99.90;;;;;;4961132;28;20212;-75
2022/11/28 08:48:06;;;;;;;41.70;22.57;;;3.60;99.90;;;;;;4967165;28;20215;-73
2022/11/28 08:50:34;;;;;;;43.60;22.10;;;3.70;99.90;;;;;;4968534;28;20216;-71
2022/11/28 08:53:01;;;;;;;40.73;23.17;;;3.70;99.90;;;;;;4962244;28;20598;-71
2022/11/28 08:55:28;;;;;;;39.13;22.37;;;3.70;99.90;;;;;;4968029;28;20208;-74
2022/11/28 08:57:54;;;;;;;38.20;22.53;;;3.80;99.90;;;;;;4970948;28;20221;-74
2022/11/28 09:00:22;;;;;;;40.87;23.30;;;3.80;99.90;;;;;;4964772;28;20240;-73
2022/11/28 09:02:48;;;;;;;40.97;22.50;;;3.90;99.90;;;;;;4966147;28;20399;-73
2022/11/28 09:05:16;;;;;;;37.70;21.97;;;4.00;99.90;;;;;;4968713;28;20224;-73
2022/11/28 09:07:44;;;;;;;36.63;21.30;;;4.10;99.90;;;;;;4971356;28;20220;-74
2022/11/28 09:10:11;;;;;;;38.27;22.67;;;4.30;99.90;;;;;;4969574;28;20208;-73
2022/11/28 09:12:38;;;;;;;39.70;21.90;;;4.40;99.90;;;;;;4970731;28;20220;-72
2022/11/28 09:15:06;;;;;;;35.23;21.80;;;4.70;99.90;;;;;;4964191;28;20701;-74
2022/11/28 09:17:33;;;;;;;34.80;20.57;;;5.00;99.90;;;;;;4973366;28;20209;-71
2022/11/28 09:20:00;;;;;;;34.47;20.13;;;5.30;99.90;;;;;;4971397;28;20213;-76
2022/11/28 09:22:29;;;;;;;34.53;19.37;;;5.60;99.90;;;;;;4970997;28;20332;-70
2022/11/28 09:24:57;;;;;;;39.70;20.80;;;5.90;99.90;;;;;;4964635;28;20210;-72
2022/11/28 09:27:24;;;;;;;31.20;19.27;;;6.40;99.90;;;;;;4967646;28;20580;-74
2022/11/28 09:29:51;;;;;;;36.83;20.77;;;6.70;99.90;;;;;;4968886;28;20208;-74
2022/11/28 09:32:18;;;;;;;32.30;19.33;;;6.90;99.90;;;;;;4968708;28;20232;-77
2022/11/28 09:34:45;;;;;;;33.93;21.13;;;7.00;99.90;;;;;;4965636;28;20215;-81
2022/11/28 09:37:12;;;;;;;33.57;19.60;;;7.00;99.90;;;;;;4969629;28;20254;-79
2022/11/28 09:39:39;;;;;;;30.67;18.67;;;7.00;99.90;;;;;;4969883;28;20688;-78
2022/11/28 09:42:16;;;;;;;32.57;20.20;;;6.90;99.90;;;;;;4969432;28;20657;-82
2022/11/28 09:44:49;;;;;;;35.50;21.50;;;6.90;99.90;;;;;;4974159;28;20565;-77
2022/11/28 09:47:21;;;;;;;30.60;19.33;;;6.80;99.90;;;;;;4972519;28;20211;-81
2022/11/28 09:49:52;;;;;;;39.73;20.30;;;6.60;99.90;;;;;;4977212;28;20611;-78
2022/11/28 09:52:28;;;;;;;33.80;20.13;;;7.20;99.90;;;;;;4974753;28;20213;-70
2022/11/28 09:55:03;;;;;;;34.83;20.47;;;6.30;99.90;;;;;;4975820;28;20655;-73
2022/11/28 09:57:34;;;;;;;35.73;20.47;;;6.10;99.90;;;;;;4974437;28;20566;-69
2022/11/28 10:00:01;;;;;;;36.17;20.93;;;5.90;99.90;;;;;;4986714;28;20209;-73
2022/11/28 10:02:37;;;;;;;35.60;20.20;;;5.80;99.90;;;;;;4988892;28;20771;-72
2022/11/28 10:05:12;;;;;;;35.60;20.40;;;5.70;99.90;;;;;;4993277;28;20192;-70
2022/11/28 10:07:46;;;;;;;33.57;20.10;;;5.60;99.90;;;;;;4984522;28;20252;-77
2022/11/28 10:10:23;;;;;;;32.67;19.17;;;5.40;99.90;;;;;;4982191;28;20228;-81
2022/11/28 10:13:02;;;;;;;39.63;19.70;;;5.20;99.90;;;;;;4973735;28;20733;-80
2022/11/28 10:15:39;;;;;;;30.40;19.27;;;5.00;99.90;;;;;;4975872;28;20323;-78
2022/11/28 10:18:22;;;;;;;38.97;19.80;;;5.00;99.90;;;;;;4975578;28;20708;-72
2022/11/28 10:20:53;;;;;;;38.13;20.07;;;4.90;99.90;;;;;;4987915;28;20216;-78
2022/11/28 10:23:24;;;;;;;31.07;18.07;;;4.80;99.90;;;;;;4984431;28;20193;-78
2022/11/28 10:25:56;;;;;;;32.50;19.40;;;4.80;99.90;;;;;;4987377;28;20187;-73
2022/11/28 10:28:28;;;;;;;34.50;19.23;;;4.70;99.90;;;;;;4993233;28;20220;-76
2022/11/28 10:31:01;;;;;;;32.53;18.13;;;4.70;99.90;;;;;;4990833;28;20217;-78
2022/11/28 10:33:33;;;;;;;30.20;17.83;;;4.70;99.90;;;;;;4984441;28;20228;-74
2022/11/28 10:36:02;;;;;;;32.07;18.53;;;4.60;99.90;;;;;;4978499;28;20193;-80
2022/11/28 10:38:32;;;;;;;30.70;18.47;;;4.60;99.90;;;;;;4973609;28;20209;-74
2022/11/28 10:41:04;;;;;;;29.57;19.10;;;4.60;99.90;;;;;;4971269;28;20684;-80
2022/11/28 10:43:39;;;;;;;30.23;17.63;;;4.60;99.90;;;;;;4972195;28;20658;-77
2022/11/28 10:46:33;;;;;;;29.13;16.80;;;4.50;99.90;;;;;;4974680;28;20212;-78
2022/11/28 10:49:13;;;;;;;35.33;19.00;;;4.50;99.90;;;;;;4977333;28;20209;-79
2022/11/28 10:51:49;;;;;;;30.60;17.83;;;4.50;99.90;;;;;;4979456;28;20220;-74
2022/11/28 10:54:25;;;;;;;30.47;17.90;;;4.50;99.90;;;;;;4978003;28;20255;-73
2022/11/28 10:57:02;;;;;;;33.10;17.83;;;4.50;99.90;;;;;;4971804;28;20688;-75
2022/11/28 10:59:43;;;;;;;33.97;18.10;;;4.50;99.90;;;;;;4979747;28;20614;-73
2022/11/28 11:02:21;;;;;;;27.37;17.13;;;4.50;99.90;;;;;;4988442;28;20184;-78
2022/11/28 11:04:48;;;;;;;27.43;17.00;;;4.40;99.90;;;;;;4989210;28;20199;-76
2022/11/28 11:07:19;;;;;;;30.33;16.87;;;4.40;99.90;;;;;;4978509;28;20240;-77
2022/11/28 11:09:46;;;;;;;31.83;18.33;;;4.30;99.90;;;;;;4975788;28;20197;-81
2022/11/28 11:12:20;;;;;;;28.37;16.67;;;4.30;99.90;;;;;;4978803;28;20244;-78
2022/11/28 11:14:48;;;;;;;27.20;16.50;;;4.20;99.90;;;;;;4986995;28;20239;-76
2022/11/28 11:17:32;;;;;;;25.30;15.70;;;4.20;99.90;;;;;;4984789;28;20223;-78
2022/11/28 11:19:58;;;;;;;30.03;17.23;;;4.20;99.90;;;;;;4980949;28;20204;-81
2022/11/28 11:22:30;;;;;;;31.07;17.43;;;4.10;99.90;;;;;;4977731;28;20220;-72
2022/11/28 11:25:07;;;;;;;29.53;16.50;;;4.10;99.90;;;;;;4975716;28;20687;-72
2022/11/28 11:27:36;;;;;;;29.57;16.70;;;4.10;99.90;;;;;;4973879;28;20204;-74
2022/11/28 11:30:22;;;;;;;31.07;17.77;;;4.00;99.90;;;;;;4984451;28;20703;-76
2022/11/28 11:32:49;;;;;;;31.00;17.40;;;4.00;99.90;;;;;;4975629;28;20216;-75
2022/11/28 11:35:20;;;;;;;33.07;19.30;;;3.90;99.90;;;;;;4971267;28;20301;-76
2022/11/28 11:37:47;;;;;;;36.33;19.10;;;3.90;99.90;;;;;;4970945;28;20263;-76
2022/11/28 11:40:28;;;;;;;36.70;19.93;;;3.90;99.90;;;;;;4967729;28;20306;-74
2022/11/28 11:42:57;;;;;;;38.43;19.93;;;3.90;99.90;;;;;;4969297;28;20209;-76
2022/11/28 11:45:28;;;;;;;39.60;19.93;;;3.80;99.90;;;;;;4972890;28;20693;-75
2022/11/28 11:47:56;;;;;;;36.90;21.57;;;3.80;99.90;;;;;;4971963;28;20303;-76
2022/11/28 11:50:26;;;;;;;42.03;20.13;;;3.80;99.90;;;;;;4970152;28;20223;-72
2022/11/28 11:53:05;;;;;;;38.33;22.63;;;3.80;99.90;;;;;;4978650;28;20232;-72
2022/11/28 11:55:38;;;;;;;36.83;21.03;;;3.80;99.90;;;;;;4972712;28;20282;-72
2022/11/28 11:58:06;;;;;;;40.80;21.50;;;3.80;99.90;;;;;;4957645;28;20212;-71
2022/11/28 12:00:39;;;;;;;35.57;20.47;;;3.90;99.90;;;;;;4964112;28;20232;-71
2022/11/28 12:03:15;;;;;;;39.10;21.43;;;3.80;99.90;;;;;;4973134;28;20205;-72
2022/11/28 12:05:48;;;;;;;40.77;22.53;;;3.80;99.90;;;;;;4969934;28;20209;-72
2022/11/28 12:08:20;;;;;;;40.53;22.13;;;3.80;99.90;;;;;;4974188;28;20208;-73
2022/11/28 12:10:51;;;;;;;40.53;21.67;;;3.90;99.90;;;;;;4971763;28;20209;-72
2022/11/28 12:13:26;;;;;;;36.93;21.17;;;3.90;99.90;;;;;;4979734;28;20228;-73
2022/11/28 12:16:03;;;;;;;38.13;21.43;;;3.80;99.90;;;;;;4980169;28;20215;-71
2022/11/28 12:18:46;;;;;;;40.27;21.40;;;3.80;99.90;;;;;;4976533;28;20224;-73
2022/11/28 12:21:16;;;;;;;37.83;21.60;;;3.80;99.90;;;;;;4961991;28;20251;-73
2022/11/28 12:24:03;;;;;;;43.13;21.93;;;3.80;99.90;;;;;;4964344;28;20263;-72
2022/11/28 12:26:37;;;;;;;42.37;22.33;;;3.80;99.90;;;;;;4967503;28;20707;-72
2022/11/28 12:29:29;;;;;;;38.97;22.80;;;3.80;99.90;;;;;;4981445;28;20251;-73
2022/11/28 12:32:13;;;;;;;38.90;21.80;;;3.80;99.90;;;;;;4979267;28;20209;-73
2022/11/28 12:34:49;;;;;;;42.07;21.37;;;3.70;99.90;;;;;;5396489;23;20263;-73
2022/11/28 12:40:17;;;;;;;41.13;22.70;;;3.70;99.90;;;;;;5071530;23;20770;-74
2022/11/28 12:43:02;;;;;;;42.03;22.30;;;3.70;99.90;;;;;;4988803;28;20203;-75
2022/11/28 12:45:36;;;;;;;41.03;21.10;;;3.70;99.90;;;;;;4989551;28;20586;-76
2022/11/28 12:48:17;;;;;;;42.23;22.20;;;3.70;99.90;;;;;;4991878;28;20211;-74
2022/11/28 12:50:47;;;;;;;42.50;23.50;;;3.70;99.90;;;;;;4988970;28;20205;-77
2022/11/28 12:53:42;;;;;;;39.23;22.07;;;3.70;99.90;;;;;;4990465;28;20228;-75
2022/11/28 12:56:25;;;;;;;38.73;20.80;;;3.70;99.90;;;;;;4988524;28;20235;-75